sensor_id;sensor_type;location;lat;lon;timestamp;P1;durP1;ratioP1;P2;durP2;ratioP2
23668;SDS011;12011;47.422;15.018;2023-07-29T00:01:16;3.03;;;3.03;;
23668;SDS011;12011;47.422;15.018;2023-07-29T00:03:46;2.76;;;2.75;;
23668;SDS011;12011;47.422;15.018;2023-07-29T00:06:15;2.91;;;2.89;;
23668;SDS011;12011;47.422;15.018;2023-07-29T00:08:45;2.85;;;2.83;;
23668;SDS011;12011;47.422;15.018;2023-07-29T00:11:17;2.89;;;2.87;;
23668;SDS011;12011;47.422;15.018;2023-07-29T00:13:46;3.02;;;2.99;;
23668;SDS011;12011;47.422;15.018;2023-07-29T00:16:16;3.20;;;3.18;;
23668;SDS011;12011;47.422;15.018;2023-07-29T00:18:47;2.95;;;2.91;;
23668;SDS011;12011;47.422;15.018;2023-07-29T00:21:17;2.99;;;2.96;;
23668;SDS011;12011;47.422;15.018;2023-07-29T00:23:46;2.85;;;2.83;;
23668;SDS011;12011;47.422;15.018;2023-07-29T00:26:18;2.81;;;2.81;;
23668;SDS011;12011;47.422;15.018;2023-07-29T00:28:48;2.93;;;2.90;;
23668;SDS011;12011;47.422;15.018;2023-07-29T00:31:17;2.91;;;2.91;;
23668;SDS011;12011;47.422;15.018;2023-07-29T00:33:47;2.80;;;2.80;;
23668;SDS011;12011;47.422;15.018;2023-07-29T00:36:18;2.93;;;2.92;;
23668;SDS011;12011;47.422;15.018;2023-07-29T00:38:48;2.77;;;2.74;;
23668;SDS011;12011;47.422;15.018;2023-07-29T00:41:21;2.85;;;2.81;;
23668;SDS011;12011;47.422;15.018;2023-07-29T00:43:52;2.93;;;2.90;;
23668;SDS011;12011;47.422;15.018;2023-07-29T00:46:22;2.90;;;2.88;;
23668;SDS011;12011;47.422;15.018;2023-07-29T00:48:53;3.02;;;3.01;;
23668;SDS011;12011;47.422;15.018;2023-07-29T00:51:23;2.95;;;2.95;;
23668;SDS011;12011;47.422;15.018;2023-07-29T00:53:56;3.32;;;3.31;;
23668;SDS011;12011;47.422;15.018;2023-07-29T00:56:28;3.11;;;3.11;;
23668;SDS011;12011;47.422;15.018;2023-07-29T00:58:57;2.98;;;2.98;;
23668;SDS011;12011;47.422;15.018;2023-07-29T01:01:28;2.98;;;2.98;;
23668;SDS011;12011;47.422;15.018;2023-07-29T01:03:59;2.90;;;2.90;;
23668;SDS011;12011;47.422;15.018;2023-07-29T01:12:40;2.72;;;2.72;;
23668;SDS011;12011;47.422;15.018;2023-07-29T01:15:21;3.03;;;3.03;;
23668;SDS011;12011;47.422;15.018;2023-07-29T01:17:59;3.06;;;3.06;;
23668;SDS011;12011;47.422;15.018;2023-07-29T01:20:37;3.15;;;3.15;;
23668;SDS011;12011;47.422;15.018;2023-07-29T01:23:11;3.14;;;3.14;;
23668;SDS011;12011;47.422;15.018;2023-07-29T01:25:43;2.98;;;2.96;;
23668;SDS011;12011;47.422;15.018;2023-07-29T01:28:13;3.17;;;3.15;;
23668;SDS011;12011;47.422;15.018;2023-07-29T01:30:42;2.87;;;2.84;;
23668;SDS011;12011;47.422;15.018;2023-07-29T01:33:14;2.93;;;2.88;;
23668;SDS011;12011;47.422;15.018;2023-07-29T01:35:50;3.12;;;3.09;;
23668;SDS011;12011;47.422;15.018;2023-07-29T01:38:28;3.06;;;3.01;;
23668;SDS011;12011;47.422;15.018;2023-07-29T01:41:06;3.20;;;3.15;;
23668;SDS011;12011;47.422;15.018;2023-07-29T01:43:37;3.17;;;3.17;;
23668;SDS011;12011;47.422;15.018;2023-07-29T01:46:09;3.33;;;3.31;;
23668;SDS011;12011;47.422;15.018;2023-07-29T01:48:40;3.07;;;3.07;;
23668;SDS011;12011;47.422;15.018;2023-07-29T01:51:13;3.17;;;3.17;;
23668;SDS011;12011;47.422;15.018;2023-07-29T01:53:43;2.99;;;2.97;;
23668;SDS011;12011;47.422;15.018;2023-07-29T01:56:15;2.85;;;2.85;;
23668;SDS011;12011;47.422;15.018;2023-07-29T01:58:52;3.14;;;3.12;;
23668;SDS011;12011;47.422;15.018;2023-07-29T02:01:22;3.21;;;3.20;;
23668;SDS011;12011;47.422;15.018;2023-07-29T02:03:51;3.05;;;3.05;;
23668;SDS011;12011;47.422;15.018;2023-07-29T02:06:21;3.08;;;3.06;;
23668;SDS011;12011;47.422;15.018;2023-07-29T02:08:52;3.24;;;3.24;;
23668;SDS011;12011;47.422;15.018;2023-07-29T02:11:26;3.28;;;3.28;;
23668;SDS011;12011;47.422;15.018;2023-07-29T02:13:58;3.03;;;3.03;;
23668;SDS011;12011;47.422;15.018;2023-07-29T02:16:28;3.25;;;3.20;;
23668;SDS011;12011;47.422;15.018;2023-07-29T02:18:58;3.03;;;2.98;;
23668;SDS011;12011;47.422;15.018;2023-07-29T02:21:27;3.17;;;3.16;;
23668;SDS011;12011;47.422;15.018;2023-07-29T02:23:58;3.00;;;2.98;;
23668;SDS011;12011;47.422;15.018;2023-07-29T02:26:30;3.02;;;2.99;;
23668;SDS011;12011;47.422;15.018;2023-07-29T02:29:02;2.90;;;2.90;;
23668;SDS011;12011;47.422;15.018;2023-07-29T02:31:31;3.12;;;3.12;;
23668;SDS011;12011;47.422;15.018;2023-07-29T02:34:03;3.15;;;3.15;;
23668;SDS011;12011;47.422;15.018;2023-07-29T02:36:32;2.91;;;2.91;;
23668;SDS011;12011;47.422;15.018;2023-07-29T02:39:02;2.86;;;2.83;;
23668;SDS011;12011;47.422;15.018;2023-07-29T02:41:35;3.15;;;3.12;;
23668;SDS011;12011;47.422;15.018;2023-07-29T02:44:05;3.08;;;3.07;;
23668;SDS011;12011;47.422;15.018;2023-07-29T02:46:34;3.44;;;3.44;;
23668;SDS011;12011;47.422;15.018;2023-07-29T02:49:06;3.22;;;3.18;;
23668;SDS011;12011;47.422;15.018;2023-07-29T02:51:35;3.13;;;3.09;;
23668;SDS011;12011;47.422;15.018;2023-07-29T02:54:05;3.01;;;2.95;;
23668;SDS011;12011;47.422;15.018;2023-07-29T02:56:37;3.13;;;3.10;;
23668;SDS011;12011;47.422;15.018;2023-07-29T02:59:06;3.00;;;3.00;;
23668;SDS011;12011;47.422;15.018;2023-07-29T03:01:36;3.00;;;3.00;;
23668;SDS011;12011;47.422;15.018;2023-07-29T03:04:05;3.24;;;3.22;;
23668;SDS011;12011;47.422;15.018;2023-07-29T03:06:35;3.32;;;3.30;;
23668;SDS011;12011;47.422;15.018;2023-07-29T03:09:04;3.16;;;3.15;;
23668;SDS011;12011;47.422;15.018;2023-07-29T03:11:34;3.11;;;3.09;;
23668;SDS011;12011;47.422;15.018;2023-07-29T03:14:06;3.23;;;3.20;;
23668;SDS011;12011;47.422;15.018;2023-07-29T03:16:35;2.90;;;2.87;;
23668;SDS011;12011;47.422;15.018;2023-07-29T03:19:05;3.10;;;3.05;;
23668;SDS011;12011;47.422;15.018;2023-07-29T03:21:34;2.82;;;2.79;;
23668;SDS011;12011;47.422;15.018;2023-07-29T03:24:04;3.06;;;3.04;;
23668;SDS011;12011;47.422;15.018;2023-07-29T03:26:34;3.08;;;3.06;;
23668;SDS011;12011;47.422;15.018;2023-07-29T03:29:06;3.15;;;3.13;;
23668;SDS011;12011;47.422;15.018;2023-07-29T03:31:35;2.99;;;2.97;;
23668;SDS011;12011;47.422;15.018;2023-07-29T03:34:05;2.95;;;2.94;;
23668;SDS011;12011;47.422;15.018;2023-07-29T03:36:38;3.05;;;3.04;;
23668;SDS011;12011;47.422;15.018;2023-07-29T03:39:11;2.94;;;2.92;;
23668;SDS011;12011;47.422;15.018;2023-07-29T03:41:44;3.23;;;3.21;;
23668;SDS011;12011;47.422;15.018;2023-07-29T03:44:13;3.05;;;3.05;;
23668;SDS011;12011;47.422;15.018;2023-07-29T03:46:43;3.06;;;3.04;;
23668;SDS011;12011;47.422;15.018;2023-07-29T03:49:13;2.95;;;2.95;;
23668;SDS011;12011;47.422;15.018;2023-07-29T03:51:43;3.22;;;3.21;;
23668;SDS011;12011;47.422;15.018;2023-07-29T03:54:12;2.93;;;2.92;;
23668;SDS011;12011;47.422;15.018;2023-07-29T03:56:46;2.89;;;2.87;;
23668;SDS011;12011;47.422;15.018;2023-07-29T03:59:16;2.91;;;2.90;;
23668;SDS011;12011;47.422;15.018;2023-07-29T04:01:50;3.11;;;3.09;;
23668;SDS011;12011;47.422;15.018;2023-07-29T04:04:20;2.98;;;2.98;;
23668;SDS011;12011;47.422;15.018;2023-07-29T04:06:49;2.93;;;2.93;;
23668;SDS011;12011;47.422;15.018;2023-07-29T04:09:19;2.91;;;2.91;;
23668;SDS011;12011;47.422;15.018;2023-07-29T04:11:51;2.97;;;2.97;;
23668;SDS011;12011;47.422;15.018;2023-07-29T04:14:21;3.02;;;3.01;;
23668;SDS011;12011;47.422;15.018;2023-07-29T04:16:52;2.90;;;2.90;;
23668;SDS011;12011;47.422;15.018;2023-07-29T04:19:23;2.98;;;2.96;;
23668;SDS011;12011;47.422;15.018;2023-07-29T04:21:53;2.77;;;2.76;;
23668;SDS011;12011;47.422;15.018;2023-07-29T04:24:23;2.98;;;2.98;;
23668;SDS011;12011;47.422;15.018;2023-07-29T04:26:55;3.08;;;3.08;;
23668;SDS011;12011;47.422;15.018;2023-07-29T04:29:27;3.04;;;3.03;;
23668;SDS011;12011;47.422;15.018;2023-07-29T04:32:00;2.97;;;2.93;;
23668;SDS011;12011;47.422;15.018;2023-07-29T04:34:29;2.94;;;2.90;;
23668;SDS011;12011;47.422;15.018;2023-07-29T04:36:59;3.04;;;3.02;;
23668;SDS011;12011;47.422;15.018;2023-07-29T04:39:28;3.32;;;3.29;;
23668;SDS011;12011;47.422;15.018;2023-07-29T04:42:01;3.29;;;3.25;;
23668;SDS011;12011;47.422;15.018;2023-07-29T04:44:31;3.22;;;3.20;;
23668;SDS011;12011;47.422;15.018;2023-07-29T04:47:02;2.89;;;2.88;;
23668;SDS011;12011;47.422;15.018;2023-07-29T04:49:32;2.75;;;2.75;;
23668;SDS011;12011;47.422;15.018;2023-07-29T04:52:01;3.11;;;3.11;;
23668;SDS011;12011;47.422;15.018;2023-07-29T04:54:31;3.25;;;3.25;;
23668;SDS011;12011;47.422;15.018;2023-07-29T04:57:03;3.35;;;3.35;;
23668;SDS011;12011;47.422;15.018;2023-07-29T04:59:36;3.28;;;3.28;;
23668;SDS011;12011;47.422;15.018;2023-07-29T05:02:07;3.12;;;3.10;;
23668;SDS011;12011;47.422;15.018;2023-07-29T05:04:36;3.24;;;3.23;;
23668;SDS011;12011;47.422;15.018;2023-07-29T05:07:06;3.31;;;3.31;;
23668;SDS011;12011;47.422;15.018;2023-07-29T05:09:36;4.17;;;4.17;;
23668;SDS011;12011;47.422;15.018;2023-07-29T05:12:08;3.92;;;3.90;;
23668;SDS011;12011;47.422;15.018;2023-07-29T05:14:38;3.13;;;3.13;;
23668;SDS011;12011;47.422;15.018;2023-07-29T05:17:07;3.30;;;3.30;;
23668;SDS011;12011;47.422;15.018;2023-07-29T05:19:37;2.86;;;2.86;;
23668;SDS011;12011;47.422;15.018;2023-07-29T05:22:06;3.20;;;3.18;;
23668;SDS011;12011;47.422;15.018;2023-07-29T05:24:36;3.18;;;3.16;;
23668;SDS011;12011;47.422;15.018;2023-07-29T05:27:08;3.34;;;3.33;;
23668;SDS011;12011;47.422;15.018;2023-07-29T05:29:37;3.32;;;3.29;;
23668;SDS011;12011;47.422;15.018;2023-07-29T05:32:07;3.53;;;3.49;;
23668;SDS011;12011;47.422;15.018;2023-07-29T05:34:36;3.47;;;3.45;;
23668;SDS011;12011;47.422;15.018;2023-07-29T05:37:06;3.16;;;3.16;;
23668;SDS011;12011;47.422;15.018;2023-07-29T05:39:35;2.90;;;2.90;;
23668;SDS011;12011;47.422;15.018;2023-07-29T05:42:08;3.25;;;3.25;;
23668;SDS011;12011;47.422;15.018;2023-07-29T05:44:37;3.08;;;3.08;;
23668;SDS011;12011;47.422;15.018;2023-07-29T05:47:14;2.81;;;2.81;;
23668;SDS011;12011;47.422;15.018;2023-07-29T05:49:44;2.91;;;2.91;;
23668;SDS011;12011;47.422;15.018;2023-07-29T05:52:13;2.98;;;2.98;;
23668;SDS011;12011;47.422;15.018;2023-07-29T05:54:43;3.07;;;3.07;;
23668;SDS011;12011;47.422;15.018;2023-07-29T05:57:16;2.88;;;2.88;;
23668;SDS011;12011;47.422;15.018;2023-07-29T05:59:45;2.79;;;2.77;;
23668;SDS011;12011;47.422;15.018;2023-07-29T06:02:15;3.07;;;3.02;;
23668;SDS011;12011;47.422;15.018;2023-07-29T06:04:45;2.65;;;2.63;;
23668;SDS011;12011;47.422;15.018;2023-07-29T06:07:14;2.67;;;2.66;;
23668;SDS011;12011;47.422;15.018;2023-07-29T06:09:45;2.67;;;2.63;;
23668;SDS011;12011;47.422;15.018;2023-07-29T06:12:18;2.63;;;2.61;;
23668;SDS011;12011;47.422;15.018;2023-07-29T06:14:47;2.47;;;2.47;;
23668;SDS011;12011;47.422;15.018;2023-07-29T06:17:17;2.56;;;2.56;;
23668;SDS011;12011;47.422;15.018;2023-07-29T06:19:49;2.69;;;2.69;;
23668;SDS011;12011;47.422;15.018;2023-07-29T06:22:19;2.29;;;2.29;;
23668;SDS011;12011;47.422;15.018;2023-07-29T06:24:48;2.12;;;2.12;;
23668;SDS011;12011;47.422;15.018;2023-07-29T06:27:22;2.06;;;2.06;;
23668;SDS011;12011;47.422;15.018;2023-07-29T06:29:53;2.33;;;2.33;;
23668;SDS011;12011;47.422;15.018;2023-07-29T06:32:26;2.37;;;2.36;;
23668;SDS011;12011;47.422;15.018;2023-07-29T06:34:56;2.17;;;2.17;;
23668;SDS011;12011;47.422;15.018;2023-07-29T06:37:27;2.08;;;2.08;;
23668;SDS011;12011;47.422;15.018;2023-07-29T06:39:56;2.19;;;2.15;;
23668;SDS011;12011;47.422;15.018;2023-07-29T06:42:29;2.12;;;2.11;;
23668;SDS011;12011;47.422;15.018;2023-07-29T06:44:59;2.01;;;2.01;;
23668;SDS011;12011;47.422;15.018;2023-07-29T06:47:28;1.94;;;1.94;;
23668;SDS011;12011;47.422;15.018;2023-07-29T06:49:58;2.11;;;2.11;;
23668;SDS011;12011;47.422;15.018;2023-07-29T06:52:28;1.86;;;1.86;;
23668;SDS011;12011;47.422;15.018;2023-07-29T06:54:57;1.85;;;1.85;;
23668;SDS011;12011;47.422;15.018;2023-07-29T06:57:30;1.82;;;1.82;;
23668;SDS011;12011;47.422;15.018;2023-07-29T06:59:59;1.77;;;1.77;;
23668;SDS011;12011;47.422;15.018;2023-07-29T07:02:30;1.85;;;1.85;;
23668;SDS011;12011;47.422;15.018;2023-07-29T07:05:00;1.82;;;1.82;;
23668;SDS011;12011;47.422;15.018;2023-07-29T07:07:29;1.77;;;1.77;;
23668;SDS011;12011;47.422;15.018;2023-07-29T07:09:59;1.88;;;1.88;;
23668;SDS011;12011;47.422;15.018;2023-07-29T07:12:31;2.03;;;2.03;;
23668;SDS011;12011;47.422;15.018;2023-07-29T07:15:01;1.76;;;1.76;;
23668;SDS011;12011;47.422;15.018;2023-07-29T07:17:30;1.97;;;1.97;;
23668;SDS011;12011;47.422;15.018;2023-07-29T07:20:00;1.99;;;1.99;;
23668;SDS011;12011;47.422;15.018;2023-07-29T07:22:29;1.67;;;1.67;;
23668;SDS011;12011;47.422;15.018;2023-07-29T07:24:59;1.92;;;1.92;;
23668;SDS011;12011;47.422;15.018;2023-07-29T07:27:31;1.66;;;1.66;;
23668;SDS011;12011;47.422;15.018;2023-07-29T07:30:02;1.92;;;1.92;;
23668;SDS011;12011;47.422;15.018;2023-07-29T07:32:33;1.64;;;1.64;;
23668;SDS011;12011;47.422;15.018;2023-07-29T07:35:02;1.73;;;1.73;;
23668;SDS011;12011;47.422;15.018;2023-07-29T07:37:33;1.90;;;1.90;;
23668;SDS011;12011;47.422;15.018;2023-07-29T07:40:03;1.66;;;1.66;;
23668;SDS011;12011;47.422;15.018;2023-07-29T07:42:37;1.65;;;1.65;;
23668;SDS011;12011;47.422;15.018;2023-07-29T07:45:07;1.58;;;1.58;;
23668;SDS011;12011;47.422;15.018;2023-07-29T07:47:39;1.58;;;1.58;;
23668;SDS011;12011;47.422;15.018;2023-07-29T07:50:09;1.64;;;1.64;;
23668;SDS011;12011;47.422;15.018;2023-07-29T07:52:44;1.50;;;1.50;;
23668;SDS011;12011;47.422;15.018;2023-07-29T07:55:15;1.45;;;1.45;;
23668;SDS011;12011;47.422;15.018;2023-07-29T07:57:47;1.47;;;1.47;;
23668;SDS011;12011;47.422;15.018;2023-07-29T08:00:16;1.37;;;1.37;;
23668;SDS011;12011;47.422;15.018;2023-07-29T08:02:46;1.39;;;1.39;;
23668;SDS011;12011;47.422;15.018;2023-07-29T08:05:16;1.46;;;1.46;;
23668;SDS011;12011;47.422;15.018;2023-07-29T08:07:48;1.52;;;1.52;;
23668;SDS011;12011;47.422;15.018;2023-07-29T08:10:17;1.67;;;1.67;;
23668;SDS011;12011;47.422;15.018;2023-07-29T08:12:49;1.44;;;1.44;;
23668;SDS011;12011;47.422;15.018;2023-07-29T08:15:19;1.29;;;1.29;;
23668;SDS011;12011;47.422;15.018;2023-07-29T08:17:49;1.21;;;1.21;;
23668;SDS011;12011;47.422;15.018;2023-07-29T08:20:19;1.38;;;1.38;;
23668;SDS011;12011;47.422;15.018;2023-07-29T08:22:48;1.39;;;1.39;;
23668;SDS011;12011;47.422;15.018;2023-07-29T08:25:19;1.39;;;1.39;;
23668;SDS011;12011;47.422;15.018;2023-07-29T08:27:51;1.36;;;1.36;;
23668;SDS011;12011;47.422;15.018;2023-07-29T08:30:21;1.39;;;1.39;;
23668;SDS011;12011;47.422;15.018;2023-07-29T08:32:52;1.41;;;1.41;;
23668;SDS011;12011;47.422;15.018;2023-07-29T08:35:25;1.41;;;1.41;;
23668;SDS011;12011;47.422;15.018;2023-07-29T08:38:02;1.55;;;1.55;;
23668;SDS011;12011;47.422;15.018;2023-07-29T08:40:36;1.36;;;1.36;;
23668;SDS011;12011;47.422;15.018;2023-07-29T08:43:14;1.13;;;1.13;;
23668;SDS011;12011;47.422;15.018;2023-07-29T08:45:49;1.17;;;1.17;;
23668;SDS011;12011;47.422;15.018;2023-07-29T08:48:23;1.28;;;1.28;;
23668;SDS011;12011;47.422;15.018;2023-07-29T08:51:05;1.26;;;1.26;;
23668;SDS011;12011;47.422;15.018;2023-07-29T08:53:40;1.31;;;1.31;;
23668;SDS011;12011;47.422;15.018;2023-07-29T08:56:11;6.38;;;5.87;;
23668;SDS011;12011;47.422;15.018;2023-07-29T08:58:44;4.60;;;3.55;;
23668;SDS011;12011;47.422;15.018;2023-07-29T09:01:15;1.88;;;1.56;;
23668;SDS011;12011;47.422;15.018;2023-07-29T09:03:44;1.41;;;1.27;;
23668;SDS011;12011;47.422;15.018;2023-07-29T09:06:14;1.37;;;1.29;;
23668;SDS011;12011;47.422;15.018;2023-07-29T09:08:45;1.19;;;1.15;;
23668;SDS011;12011;47.422;15.018;2023-07-29T09:11:15;1.13;;;1.12;;
23668;SDS011;12011;47.422;15.018;2023-07-29T09:13:48;1.10;;;1.10;;
23668;SDS011;12011;47.422;15.018;2023-07-29T09:16:18;0.86;;;0.86;;
23668;SDS011;12011;47.422;15.018;2023-07-29T09:18:50;0.85;;;0.85;;
23668;SDS011;12011;47.422;15.018;2023-07-29T09:21:24;0.88;;;0.88;;
23668;SDS011;12011;47.422;15.018;2023-07-29T09:23:56;0.94;;;0.94;;
23668;SDS011;12011;47.422;15.018;2023-07-29T09:26:33;0.88;;;0.88;;
23668;SDS011;12011;47.422;15.018;2023-07-29T09:29:06;1.05;;;1.05;;
23668;SDS011;12011;47.422;15.018;2023-07-29T09:31:35;0.79;;;0.79;;
23668;SDS011;12011;47.422;15.018;2023-07-29T09:34:04;0.84;;;0.84;;
23668;SDS011;12011;47.422;15.018;2023-07-29T09:36:34;0.85;;;0.85;;
23668;SDS011;12011;47.422;15.018;2023-07-29T09:39:10;0.96;;;0.96;;
23668;SDS011;12011;47.422;15.018;2023-07-29T09:41:41;0.87;;;0.87;;
23668;SDS011;12011;47.422;15.018;2023-07-29T09:44:19;0.83;;;0.83;;
23668;SDS011;12011;47.422;15.018;2023-07-29T09:46:48;0.92;;;0.92;;
23668;SDS011;12011;47.422;15.018;2023-07-29T09:49:18;0.74;;;0.74;;
23668;SDS011;12011;47.422;15.018;2023-07-29T09:51:47;0.74;;;0.74;;
23668;SDS011;12011;47.422;15.018;2023-07-29T09:54:17;0.90;;;0.90;;
23668;SDS011;12011;47.422;15.018;2023-07-29T09:56:47;0.82;;;0.82;;
23668;SDS011;12011;47.422;15.018;2023-07-29T09:59:21;0.87;;;0.87;;
23668;SDS011;12011;47.422;15.018;2023-07-29T10:01:54;0.85;;;0.85;;
23668;SDS011;12011;47.422;15.018;2023-07-29T10:04:24;0.75;;;0.75;;
23668;SDS011;12011;47.422;15.018;2023-07-29T10:06:56;0.81;;;0.81;;
23668;SDS011;12011;47.422;15.018;2023-07-29T10:09:30;0.87;;;0.87;;
23668;SDS011;12011;47.422;15.018;2023-07-29T10:12:01;0.83;;;0.83;;
23668;SDS011;12011;47.422;15.018;2023-07-29T10:14:35;1.07;;;1.07;;
23668;SDS011;12011;47.422;15.018;2023-07-29T10:17:07;0.86;;;0.86;;
23668;SDS011;12011;47.422;15.018;2023-07-29T10:19:37;0.91;;;0.91;;
23668;SDS011;12011;47.422;15.018;2023-07-29T10:22:10;0.84;;;0.84;;
23668;SDS011;12011;47.422;15.018;2023-07-29T10:24:46;1.00;;;1.00;;
23668;SDS011;12011;47.422;15.018;2023-07-29T10:27:18;1.03;;;1.03;;
23668;SDS011;12011;47.422;15.018;2023-07-29T10:29:52;0.79;;;0.79;;
23668;SDS011;12011;47.422;15.018;2023-07-29T10:32:24;0.82;;;0.82;;
23668;SDS011;12011;47.422;15.018;2023-07-29T10:34:55;0.95;;;0.95;;
23668;SDS011;12011;47.422;15.018;2023-07-29T10:37:24;0.81;;;0.81;;
23668;SDS011;12011;47.422;15.018;2023-07-29T10:39:54;0.74;;;0.74;;
23668;SDS011;12011;47.422;15.018;2023-07-29T10:42:24;0.89;;;0.89;;
23668;SDS011;12011;47.422;15.018;2023-07-29T10:44:56;0.67;;;0.67;;
23668;SDS011;12011;47.422;15.018;2023-07-29T10:47:26;0.77;;;0.77;;
23668;SDS011;12011;47.422;15.018;2023-07-29T10:49:58;0.90;;;0.90;;
23668;SDS011;12011;47.422;15.018;2023-07-29T10:52:48;0.81;;;0.81;;
23668;SDS011;12011;47.422;15.018;2023-07-29T10:55:26;0.91;;;0.91;;
23668;SDS011;12011;47.422;15.018;2023-07-29T10:58:11;0.95;;;0.95;;
23668;SDS011;12011;47.422;15.018;2023-07-29T11:00:46;1.00;;;1.00;;
23668;SDS011;12011;47.422;15.018;2023-07-29T11:03:16;0.87;;;0.87;;
23668;SDS011;12011;47.422;15.018;2023-07-29T11:05:48;0.86;;;0.86;;
23668;SDS011;12011;47.422;15.018;2023-07-29T11:08:20;0.87;;;0.87;;
23668;SDS011;12011;47.422;15.018;2023-07-29T11:10:59;1.05;;;1.05;;
23668;SDS011;12011;47.422;15.018;2023-07-29T11:13:32;0.94;;;0.94;;
23668;SDS011;12011;47.422;15.018;2023-07-29T11:16:09;1.12;;;1.12;;
23668;SDS011;12011;47.422;15.018;2023-07-29T11:18:44;1.08;;;1.08;;
23668;SDS011;12011;47.422;15.018;2023-07-29T11:21:17;1.29;;;1.29;;
23668;SDS011;12011;47.422;15.018;2023-07-29T11:23:47;1.16;;;1.16;;
23668;SDS011;12011;47.422;15.018;2023-07-29T11:26:17;1.29;;;1.29;;
23668;SDS011;12011;47.422;15.018;2023-07-29T11:28:49;1.05;;;1.05;;
23668;SDS011;12011;47.422;15.018;2023-07-29T11:31:21;1.14;;;1.14;;
23668;SDS011;12011;47.422;15.018;2023-07-29T11:33:50;1.13;;;1.13;;
23668;SDS011;12011;47.422;15.018;2023-07-29T11:36:20;1.05;;;1.04;;
23668;SDS011;12011;47.422;15.018;2023-07-29T11:38:50;1.20;;;1.20;;
23668;SDS011;12011;47.422;15.018;2023-07-29T11:41:19;1.08;;;1.08;;
23668;SDS011;12011;47.422;15.018;2023-07-29T11:43:50;1.19;;;1.19;;
23668;SDS011;12011;47.422;15.018;2023-07-29T11:46:25;1.07;;;1.06;;
23668;SDS011;12011;47.422;15.018;2023-07-29T11:48:54;1.21;;;1.19;;
23668;SDS011;12011;47.422;15.018;2023-07-29T11:51:25;1.36;;;1.34;;
23668;SDS011;12011;47.422;15.018;2023-07-29T11:53:54;1.28;;;1.27;;
23668;SDS011;12011;47.422;15.018;2023-07-29T11:56:34;1.53;;;1.52;;
23668;SDS011;12011;47.422;15.018;2023-07-29T11:59:04;1.46;;;1.45;;
23668;SDS011;12011;47.422;15.018;2023-07-29T12:01:37;1.41;;;1.39;;
23668;SDS011;12011;47.422;15.018;2023-07-29T12:04:08;1.61;;;1.60;;
23668;SDS011;12011;47.422;15.018;2023-07-29T12:06:39;1.61;;;1.60;;
23668;SDS011;12011;47.422;15.018;2023-07-29T12:09:09;1.40;;;1.40;;
23668;SDS011;12011;47.422;15.018;2023-07-29T12:11:39;1.56;;;1.56;;
23668;SDS011;12011;47.422;15.018;2023-07-29T12:14:10;1.33;;;1.33;;
23668;SDS011;12011;47.422;15.018;2023-07-29T12:16:48;1.51;;;1.51;;
23668;SDS011;12011;47.422;15.018;2023-07-29T12:19:19;1.59;;;1.59;;
23668;SDS011;12011;47.422;15.018;2023-07-29T12:21:50;1.42;;;1.42;;
23668;SDS011;12011;47.422;15.018;2023-07-29T12:24:22;1.43;;;1.43;;
23668;SDS011;12011;47.422;15.018;2023-07-29T12:26:51;1.41;;;1.41;;
23668;SDS011;12011;47.422;15.018;2023-07-29T12:29:21;1.35;;;1.35;;
23668;SDS011;12011;47.422;15.018;2023-07-29T12:31:59;1.37;;;1.35;;
23668;SDS011;12011;47.422;15.018;2023-07-29T12:34:32;1.36;;;1.36;;
23668;SDS011;12011;47.422;15.018;2023-07-29T12:37:05;1.36;;;1.36;;
23668;SDS011;12011;47.422;15.018;2023-07-29T12:39:40;1.34;;;1.34;;
23668;SDS011;12011;47.422;15.018;2023-07-29T12:42:15;1.39;;;1.39;;
23668;SDS011;12011;47.422;15.018;2023-07-29T12:44:45;1.15;;;1.15;;
23668;SDS011;12011;47.422;15.018;2023-07-29T12:47:17;1.22;;;1.22;;
23668;SDS011;12011;47.422;15.018;2023-07-29T12:49:47;1.18;;;1.18;;
23668;SDS011;12011;47.422;15.018;2023-07-29T12:52:16;1.28;;;1.28;;
23668;SDS011;12011;47.422;15.018;2023-07-29T12:54:46;1.36;;;1.35;;
23668;SDS011;12011;47.422;15.018;2023-07-29T12:57:15;1.32;;;1.32;;
23668;SDS011;12011;47.422;15.018;2023-07-29T12:59:44;1.45;;;1.44;;
23668;SDS011;12011;47.422;15.018;2023-07-29T13:02:17;1.43;;;1.42;;
23668;SDS011;12011;47.422;15.018;2023-07-29T13:04:46;1.34;;;1.32;;
23668;SDS011;12011;47.422;15.018;2023-07-29T13:07:16;1.32;;;1.32;;
23668;SDS011;12011;47.422;15.018;2023-07-29T13:09:45;1.15;;;1.14;;
23668;SDS011;12011;47.422;15.018;2023-07-29T13:12:15;1.17;;;1.17;;
23668;SDS011;12011;47.422;15.018;2023-07-29T13:14:44;1.23;;;1.22;;
23668;SDS011;12011;47.422;15.018;2023-07-29T13:17:16;1.37;;;1.37;;
23668;SDS011;12011;47.422;15.018;2023-07-29T13:19:47;1.20;;;1.20;;
23668;SDS011;12011;47.422;15.018;2023-07-29T13:22:17;1.17;;;1.17;;
23668;SDS011;12011;47.422;15.018;2023-07-29T13:24:50;1.07;;;1.07;;
23668;SDS011;12011;47.422;15.018;2023-07-29T13:27:19;1.27;;;1.27;;
23668;SDS011;12011;47.422;15.018;2023-07-29T13:29:50;1.30;;;1.30;;
23668;SDS011;12011;47.422;15.018;2023-07-29T13:32:23;1.44;;;1.44;;
23668;SDS011;12011;47.422;15.018;2023-07-29T13:34:52;1.45;;;1.44;;
23668;SDS011;12011;47.422;15.018;2023-07-29T13:37:22;1.44;;;1.44;;
23668;SDS011;12011;47.422;15.018;2023-07-29T13:39:51;1.27;;;1.27;;
23668;SDS011;12011;47.422;15.018;2023-07-29T13:42:21;1.59;;;1.59;;
23668;SDS011;12011;47.422;15.018;2023-07-29T13:44:50;1.38;;;1.38;;
23668;SDS011;12011;47.422;15.018;2023-07-29T13:47:23;1.14;;;1.14;;
23668;SDS011;12011;47.422;15.018;2023-07-29T13:49:52;1.47;;;1.47;;
23668;SDS011;12011;47.422;15.018;2023-07-29T13:52:22;1.43;;;1.43;;
23668;SDS011;12011;47.422;15.018;2023-07-29T13:54:51;1.38;;;1.38;;
23668;SDS011;12011;47.422;15.018;2023-07-29T13:57:21;1.44;;;1.44;;
23668;SDS011;12011;47.422;15.018;2023-07-29T13:59:50;1.47;;;1.47;;
23668;SDS011;12011;47.422;15.018;2023-07-29T14:02:23;1.32;;;1.32;;
23668;SDS011;12011;47.422;15.018;2023-07-29T14:04:57;1.49;;;1.49;;
23668;SDS011;12011;47.422;15.018;2023-07-29T14:07:47;1.29;;;1.29;;
23668;SDS011;12011;47.422;15.018;2023-07-29T14:10:17;1.43;;;1.43;;
23668;SDS011;12011;47.422;15.018;2023-07-29T14:12:47;1.43;;;1.43;;
23668;SDS011;12011;47.422;15.018;2023-07-29T14:15:18;1.45;;;1.45;;
23668;SDS011;12011;47.422;15.018;2023-07-29T14:17:54;1.64;;;1.64;;
23668;SDS011;12011;47.422;15.018;2023-07-29T14:20:26;1.31;;;1.31;;
23668;SDS011;12011;47.422;15.018;2023-07-29T14:22:57;1.38;;;1.38;;
23668;SDS011;12011;47.422;15.018;2023-07-29T14:25:31;1.30;;;1.30;;
23668;SDS011;12011;47.422;15.018;2023-07-29T14:28:04;1.57;;;1.57;;
23668;SDS011;12011;47.422;15.018;2023-07-29T14:30:34;1.44;;;1.44;;
23668;SDS011;12011;47.422;15.018;2023-07-29T14:36:16;1.41;;;1.41;;
23668;SDS011;12011;47.422;15.018;2023-07-29T14:38:46;1.33;;;1.33;;
23668;SDS011;12011;47.422;15.018;2023-07-29T14:41:20;1.19;;;1.19;;
23668;SDS011;12011;47.422;15.018;2023-07-29T14:43:50;1.45;;;1.45;;
23668;SDS011;12011;47.422;15.018;2023-07-29T14:46:21;1.50;;;1.50;;
23668;SDS011;12011;47.422;15.018;2023-07-29T14:48:56;1.41;;;1.41;;
23668;SDS011;12011;47.422;15.018;2023-07-29T14:51:33;1.46;;;1.45;;
23668;SDS011;12011;47.422;15.018;2023-07-29T14:54:04;1.49;;;1.47;;
23668;SDS011;12011;47.422;15.018;2023-07-29T14:56:42;1.42;;;1.40;;
23668;SDS011;12011;47.422;15.018;2023-07-29T14:59:15;1.29;;;1.28;;
23668;SDS011;12011;47.422;15.018;2023-07-29T15:01:50;1.35;;;1.35;;
23668;SDS011;12011;47.422;15.018;2023-07-29T15:04:25;1.61;;;1.60;;
23668;SDS011;12011;47.422;15.018;2023-07-29T15:06:54;1.38;;;1.38;;